Time;durP1;ratioP1;P1;durP2;ratioP2;P2;SDS_P1;SDS_P2;PMS_P1;PMS_P2;Temp;Humidity;BMP_temperature;BMP_pressure;BME280_temperature;BME280_humidity;BME280_pressure;Samples;Min_cycle;Max_cycle;Signal;HPM_P1;HPM_P2
2023/06/27 00:01:27;;;;;;;2.00;0.85;;;;;;;31.24;30.93;101923.50;5029354;27;100797;-81
2023/06/27 00:03:54;;;;;;;0.80;0.68;;;;;;;31.23;30.83;101927.34;5031061;27;97802;-80
2023/06/27 00:06:21;;;;;;;0.90;0.70;;;;;;;31.24;30.96;101926.28;5036268;27;97764;-81
2023/06/27 00:08:49;;;;;;;0.82;0.70;;;;;;;31.23;31.16;101927.34;5031135;27;97088;-81
2023/06/27 00:11:16;;;;;;;1.42;0.70;;;;;;;31.23;31.08;101924.56;5030829;27;97024;-81
2023/06/27 00:13:43;;;;;;;0.80;0.60;;;;;;;31.23;31.08;101924.56;5036272;27;96826;-81
2023/06/27 00:16:14;;;;;;;1.60;0.70;;;;;;;31.23;31.25;101919.03;5045946;27;96861;-81
2023/06/27 00:18:42;;;;;;;1.15;0.60;;;;;;;31.21;30.97;101921.13;5040990;27;96652;-81
2023/06/27 00:21:08;;;;;;;0.95;0.55;;;;;;;31.22;31.22;101922.88;5034360;27;97323;-81
2023/06/27 00:23:35;;;;;;;1.27;0.75;;;;;;;31.21;31.09;101926.69;5035568;27;98894;-81
2023/06/27 00:26:03;;;;;;;1.25;0.70;;;;;;;31.21;31.18;101922.00;5035333;27;96820;-81
2023/06/27 00:28:30;;;;;;;0.90;0.70;;;;;;;31.20;31.13;101913.88;5039293;27;97165;-81
2023/06/27 00:30:56;;;;;;;1.60;0.70;;;;;;;31.21;31.19;101915.56;5035973;27;99643;-81
2023/06/27 00:33:23;;;;;;;0.88;0.63;;;;;;;31.20;30.98;101922.19;5025688;27;99405;-81
2023/06/27 00:35:50;;;;;;;1.38;0.75;;;;;;;31.21;31.16;101918.34;5037721;27;96708;-81
2023/06/27 00:38:16;;;;;;;0.95;0.60;;;;;;;31.20;31.29;101911.09;5046652;27;97094;-81
2023/06/27 00:40:43;;;;;;;0.98;0.65;;;;;;;31.19;31.03;101913.03;5041499;27;99705;-81
2023/06/27 00:43:10;;;;;;;1.27;0.80;;;;;;;31.20;31.17;101916.66;5048977;27;99617;-81
2023/06/27 00:45:36;;;;;;;0.77;0.50;;;;;;;31.19;31.29;101915.81;5037407;27;96622;-81
2023/06/27 00:48:04;;;;;;;1.75;0.80;;;;;;;31.19;31.00;101912.16;5013032;28;97175;-81
2023/06/27 00:50:31;;;;;;;1.80;0.82;;;;;;;31.19;31.35;101912.16;5039727;27;96929;-82
2023/06/27 00:53:01;;;;;;;1.27;0.77;;;;;;;31.18;31.21;101916.00;5029309;28;97639;-81
2023/06/27 00:55:31;;;;;;;1.20;0.80;;;;;;;31.18;31.12;101907.69;5031362;27;96771;-81
2023/06/27 00:57:57;;;;;;;1.25;0.90;;;;;;;31.17;31.17;101911.53;5030124;27;96957;-81
2023/06/27 01:00:24;;;;;;;0.88;0.60;;;;;;;31.18;31.24;101927.13;5032420;27;97882;-81
2023/06/27 01:02:50;;;;;;;1.38;0.70;;;;;;;31.17;31.10;101917.09;5052128;27;97786;-81
2023/06/27 01:05:19;;;;;;;1.38;0.60;;;;;;;31.16;31.04;101916.25;5035345;27;97062;-81
2023/06/27 01:08:01;;;;;;;0.90;0.50;;;;;;;31.17;31.32;101920.72;5037901;27;97847;-81
2023/06/27 01:10:44;;;;;;;1.25;0.70;;;;;;;31.17;31.34;101922.63;5050728;27;96798;-81
2023/06/27 01:13:27;;;;;;;2.05;0.77;;;;;;;31.15;31.14;101922.00;5050604;27;96729;-81
2023/06/27 01:15:56;;;;;;;1.25;0.57;;;;;;;31.13;31.35;101919.41;5032116;27;97276;-81
2023/06/27 01:18:25;;;;;;;1.02;0.68;;;;;;;31.14;31.15;101920.28;5046477;27;96772;-81
2023/06/27 01:20:52;;;;;;;1.00;0.68;;;;;;;31.13;31.36;101916.63;5032507;27;98203;-81
2023/06/27 01:23:55;;;;;;;1.38;0.60;;;;;;;31.14;31.29;101909.16;5036346;27;100193;-81
2023/06/27 01:26:22;;;;;;;0.70;0.60;;;;;;;31.11;31.37;101910.47;5045155;27;97306;-81
2023/06/27 01:28:49;;;;;;;1.45;0.73;;;;;;;31.12;31.36;101914.09;5029955;27;96971;-81
2023/06/27 01:31:28;;;;;;;0.65;0.50;;;;;;;31.12;31.32;101908.53;5029672;27;97752;-81
2023/06/27 01:34:02;;;;;;;1.35;0.70;;;;;;;31.12;31.43;101908.53;5024455;27;99411;-81
2023/06/27 01:36:41;;;;;;;;;;;;;;;31.06;31.16;101909.41;5048379;27;96876;-81
2023/06/27 01:39:12;;;;;;;1.00;0.70;;;;;;;31.06;31.44;101909.41;5033947;27;97288;-81
2023/06/27 01:41:43;;;;;;;1.13;0.65;;;;;;;31.07;31.32;101909.19;5036491;27;97114;-81
2023/06/27 01:44:12;;;;;;;1.35;0.77;;;;;;;31.08;31.21;101916.44;5051943;27;97534;-80
2023/06/27 01:46:40;;;;;;;2.13;0.82;;;;;;;31.09;31.23;101909.81;5051493;27;96919;-81
2023/06/27 01:49:09;;;;;;;1.08;0.60;;;;;;;31.08;31.50;101910.03;5033918;27;97064;-80
2023/06/27 01:51:35;;;;;;;0.73;0.65;;;;;;;31.08;31.56;101910.03;5033261;27;99350;-81
2023/06/27 01:54:02;;;;;;;2.15;0.93;;;;;;;31.09;31.44;101907.06;5033550;27;97818;-81
2023/06/27 01:56:28;;;;;;;1.10;0.85;;;;;;;31.08;31.62;101905.34;5051690;27;97312;-81
2023/06/27 01:58:55;;;;;;;1.15;0.68;;;;;;;31.08;31.32;101899.78;5031517;27;96840;-80
2023/06/27 02:01:21;;;;;;;0.82;0.60;;;;;;;31.08;31.45;101904.50;5032360;27;99272;-81
2023/06/27 02:03:48;;;;;;;0.68;0.57;;;;;;;31.08;31.10;101899.78;5050821;27;97861;-81
2023/06/27 02:06:15;;;;;;;1.20;0.82;;;;;;;31.08;31.31;101894.25;5051133;27;96915;-81
2023/06/27 02:08:43;;;;;;;0.95;0.80;;;;;;;31.09;31.05;101895.09;5051512;27;96825;-80
2023/06/27 02:11:09;;;;;;;1.20;0.57;;;;;;;31.07;31.33;101892.53;5052287;27;97106;-81
2023/06/27 02:13:40;;;;;;;1.20;0.70;;;;;;;31.08;31.38;101896.16;5050467;27;97932;-81
2023/06/27 02:16:07;;;;;;;1.13;0.70;;;;;;;31.07;31.17;101889.78;5051824;27;97330;-81
2023/06/27 02:18:33;;;;;;;1.02;0.60;;;;;;;31.07;31.43;101889.78;5051753;27;97346;-81
2023/06/27 02:21:00;;;;;;;0.65;0.50;;;;;;;31.07;31.25;101897.25;5038543;27;96853;-80
2023/06/27 02:23:27;;;;;;;1.02;0.65;;;;;;;31.07;31.56;101887.00;5039414;27;97647;-81
2023/06/27 02:25:53;;;;;;;1.88;0.82;;;;;;;31.07;31.34;101888.91;5046285;27;96865;-80
2023/06/27 02:28:20;;;;;;;1.13;0.60;;;;;;;31.07;31.43;101891.69;5033492;27;97057;-81
2023/06/27 02:30:47;;;;;;;0.77;0.60;;;;;;;31.07;31.49;101897.25;5047706;27;99818;-81
2023/06/27 02:33:13;;;;;;;0.73;0.50;;;;;;;31.05;31.28;101889.13;5031084;27;99710;-81
2023/06/27 02:35:40;;;;;;;0.75;0.45;;;;;;;31.05;31.24;101893.84;5031445;27;96894;-81
2023/06/27 02:38:08;;;;;;;1.15;0.70;;;;;;;31.05;31.45;101896.59;5033162;27;96851;-81
2023/06/27 02:40:34;;;;;;;0.70;0.50;;;;;;;31.06;31.39;101890.00;5043748;27;98775;-81
2023/06/27 02:43:04;;;;;;;1.30;0.80;;;;;;;31.06;31.46;101890.00;5049418;27;99886;-81
2023/06/27 02:45:31;;;;;;;2.30;0.77;;;;;;;31.05;31.28;101886.38;5033582;27;96916;-81
2023/06/27 02:47:57;;;;;;;0.80;0.60;;;;;;;31.05;31.49;101885.50;5016060;27;96844;-80
2023/06/27 02:50:25;;;;;;;1.13;0.80;;;;;;;31.04;31.40;101881.03;5030802;27;99718;-80
2023/06/27 02:52:51;;;;;;;1.00;0.63;;;;;;;31.03;31.59;101880.19;5049203;27;99296;-81
2023/06/27 02:55:18;;;;;;;1.42;0.70;;;;;;;31.04;31.52;101883.81;5048590;27;96731;-81
2023/06/27 02:57:45;;;;;;;0.70;0.50;;;;;;;31.04;31.57;101878.25;5037169;27;96911;-80
2023/06/27 03:00:13;;;;;;;1.45;0.70;;;;;;;31.03;31.40;101873.78;5030719;27;99287;-81
2023/06/27 03:02:40;;;;;;;1.52;0.85;;;;;;;31.02;31.46;101883.19;5060505;27;100630;-81
2023/06/27 03:05:07;;;;;;;0.90;0.50;;;;;;;31.03;31.35;101887.66;5031982;27;96637;-81
2023/06/27 03:07:35;;;;;;;1.60;1.08;;;;;;;31.02;31.57;101892.34;5034480;27;96795;-81
2023/06/27 03:10:01;;;;;;;2.50;0.60;;;;;;;31.02;31.26;101894.28;5043294;27;97369;-81
2023/06/27 03:12:29;;;;;;;1.17;0.70;;;;;;;31.01;31.40;101889.78;5048550;27;98870;-81
2023/06/27 03:14:56;;;;;;;0.82;0.57;;;;;;;31.01;31.52;101893.41;5029813;27;96627;-81
2023/06/27 03:17:22;;;;;;;2.15;0.70;;;;;;;31.01;31.59;101898.13;5062866;27;97104;-81
2023/06/27 03:19:49;;;;;;;1.08;0.50;;;;;;;31.01;31.45;101895.34;5031627;27;99671;-81
2023/06/27 03:22:16;;;;;;;1.27;0.70;;;;;;;31.00;31.46;101900.03;5046950;27;98989;-81
2023/06/27 03:24:43;;;;;;;1.33;0.85;;;;;;;31.00;31.37;101888.94;5039565;27;96972;-81
2023/06/27 03:27:10;;;;;;;0.93;0.55;;;;;;;30.99;31.60;101882.53;5050030;27;96906;-81
2023/06/27 03:29:39;;;;;;;1.02;0.77;;;;;;;30.99;31.09;101878.91;5051105;27;99185;-81
2023/06/27 03:32:07;;;;;;;0.90;0.60;;;;;;;30.98;31.49;101889.16;5054457;27;96692;-81
2023/06/27 03:34:34;;;;;;;0.70;0.57;;;;;;;31.00;31.76;101891.72;5053211;27;96898;-80
2023/06/27 03:37:00;;;;;;;1.25;0.70;;;;;;;30.98;31.62;101882.75;5051542;27;96833;-81
2023/06/27 03:39:28;;;;;;;0.85;0.60;;;;;;;30.97;31.63;101893.00;5050611;27;97147;-81
2023/06/27 03:41:55;;;;;;;1.20;0.60;;;;;;;30.97;31.44;101895.78;5033279;27;97236;-81
2023/06/27 03:44:22;;;;;;;1.15;0.70;;;;;;;30.97;31.41;101897.72;5050982;27;96818;-81
2023/06/27 03:46:48;;;;;;;0.95;0.70;;;;;;;30.96;31.63;101894.06;5033495;27;97385;-81
2023/06/27 03:49:15;;;;;;;2.00;0.68;;;;;;;30.96;31.53;101894.06;5050203;27;100281;-81
2023/06/27 03:51:42;;;;;;;1.23;0.57;;;;;;;30.95;31.49;101892.38;5050206;27;100431;-81
2023/06/27 03:54:09;;;;;;;1.23;0.60;;;;;;;30.96;31.50;101893.22;5050074;27;96979;-81
2023/06/27 03:56:36;;;;;;;1.08;0.70;;;;;;;30.95;31.52;101892.38;5032070;27;97263;-81
2023/06/27 03:59:02;;;;;;;1.33;0.70;;;;;;;30.95;31.46;101897.06;5050112;27;99656;-81
2023/06/27 04:01:29;;;;;;;1.30;0.55;;;;;;;30.95;31.58;101889.59;5032032;27;99052;-81
2023/06/27 04:03:56;;;;;;;1.02;0.60;;;;;;;30.95;31.71;101894.28;5050063;27;96838;-80
2023/06/27 04:06:23;;;;;;;0.70;0.65;;;;;;;30.94;31.78;101896.22;5050580;27;97047;-80
2023/06/27 04:08:49;;;;;;;1.20;0.70;;;;;;;30.94;31.59;101893.44;5050849;27;96840;-80
2023/06/27 04:11:16;;;;;;;1.52;0.90;;;;;;;30.94;31.54;101892.59;5032526;27;100041;-80
2023/06/27 04:13:42;;;;;;;1.10;0.80;;;;;;;30.93;31.69;101896.44;5048833;27;96869;-81
2023/06/27 04:16:11;;;;;;;0.82;0.65;;;;;;;30.93;31.66;101897.28;5036006;27;97314;-81
2023/06/27 04:18:37;;;;;;;1.17;0.70;;;;;;;30.93;31.53;101902.84;5037655;27;100314;-80
2023/06/27 04:21:04;;;;;;;1.38;0.70;;;;;;;30.92;31.45;101898.34;5048775;27;97711;-80
2023/06/27 04:23:30;;;;;;;1.05;0.68;;;;;;;30.93;31.58;101897.28;5049212;27;96825;-80
2023/06/27 04:26:05;;;;;;;1.50;0.90;;;;;;;30.94;31.61;101903.69;5046674;27;97630;-80
2023/06/27 04:28:34;;;;;;;1.20;0.60;;;;;;;30.92;31.87;101901.13;5023926;27;99118;-81
2023/06/27 04:31:01;;;;;;;0.95;0.60;;;;;;;30.92;31.62;101894.72;5031450;27;96888;-80
2023/06/27 04:33:29;;;;;;;0.70;0.50;;;;;;;30.91;31.70;101904.97;5030344;27;96848;-81
2023/06/27 04:36:03;;;;;;;0.95;0.57;;;;;;;30.91;31.49;101893.88;5030440;27;96914;-81
2023/06/27 04:38:37;;;;;;;1.50;0.80;;;;;;;30.91;31.86;101904.97;5032430;27;98197;-81
2023/06/27 04:41:08;;;;;;;0.80;0.70;;;;;;;30.89;31.48;101893.25;5043835;27;97566;-80
2023/06/27 04:43:36;;;;;;;0.90;0.70;;;;;;;30.90;31.44;101899.66;5058353;27;97476;-81
2023/06/27 04:46:03;;;;;;;1.30;0.85;;;;;;;30.89;31.70;101896.03;5042291;27;96707;-81
2023/06/27 04:48:30;;;;;;;1.02;0.68;;;;;;;30.90;31.57;101902.41;5033956;27;96744;-81
2023/06/27 04:50:57;;;;;;;1.17;0.70;;;;;;;30.90;31.82;101905.19;5032365;27;97555;-80
2023/06/27 04:53:26;;;;;;;1.35;0.77;;;;;;;30.89;31.77;101901.56;5032105;27;97256;-81
2023/06/27 04:55:53;;;;;;;2.08;0.60;;;;;;;30.89;31.87;101903.50;5028991;27;97861;-81
2023/06/27 04:58:20;;;;;;;0.85;0.60;;;;;;;30.88;31.75;101908.19;5032097;27;97750;-81
2023/06/27 05:00:47;;;;;;;0.95;0.70;;;;;;;30.89;31.77;101906.25;5031327;27;98170;-81
2023/06/27 05:03:14;;;;;;;1.13;0.70;;;;;;;30.89;31.62;101909.03;5037938;27;96661;-81
2023/06/27 05:05:41;;;;;;;1.90;0.60;;;;;;;30.87;31.75;101900.94;5044057;27;96737;-80
2023/06/27 05:08:09;;;;;;;1.10;0.82;;;;;;;30.87;31.64;101911.19;5031045;27;97409;-80
2023/06/27 05:10:36;;;;;;;1.73;0.80;;;;;;;30.87;31.83;101906.47;5031597;27;98614;-81
2023/06/27 05:13:03;;;;;;;1.30;0.82;;;;;;;30.88;31.63;101912.88;5033477;27;96724;-81
2023/06/27 05:15:30;;;;;;;1.08;0.80;;;;;;;30.86;31.95;101904.78;5036150;27;97228;-81
2023/06/27 05:18:06;;;;;;;1.13;0.80;;;;;;;30.87;31.84;101917.59;5047697;27;97428;-81
2023/06/27 05:20:32;;;;;;;0.88;0.60;;;;;;;30.86;31.79;101913.09;5033736;27;97816;-81
2023/06/27 05:23:01;;;;;;;1.70;0.90;;;;;;;30.86;31.72;101912.25;5033297;27;96682;-81
2023/06/27 05:25:29;;;;;;;0.70;0.60;;;;;;;30.85;31.75;101907.78;5047359;27;97753;-80
2023/06/27 05:27:55;;;;;;;1.48;0.80;;;;;;;30.86;31.89;101910.31;5053516;27;97527;-80
2023/06/27 05:30:22;;;;;;;0.85;0.70;;;;;;;30.85;31.88;101905.84;5050978;27;96783;-81
2023/06/27 05:32:49;;;;;;;0.70;0.60;;;;;;;30.85;32.00;101903.06;5041470;27;96798;-81
2023/06/27 05:35:15;;;;;;;1.17;0.68;;;;;;;30.85;31.75;101908.63;5053648;27;96901;-80
2023/06/27 05:37:42;;;;;;;1.20;0.70;;;;;;;30.85;31.75;101905.00;5052127;27;97371;-80
2023/06/27 05:40:09;;;;;;;1.13;0.70;;;;;;;30.84;31.98;101906.91;5051427;27;97358;-80
2023/06/27 05:42:35;;;;;;;1.88;0.80;;;;;;;30.84;31.74;101909.69;5053197;27;96635;-81
2023/06/27 05:45:03;;;;;;;1.88;0.77;;;;;;;30.84;31.65;101912.47;5054031;27;96710;-81
2023/06/27 05:47:29;;;;;;;1.67;0.70;;;;;;;30.84;31.79;101904.16;5051592;27;100021;-80
2023/06/27 05:49:56;;;;;;;0.80;0.68;;;;;;;30.84;31.95;101906.06;5034482;27;100030;-81
2023/06/27 05:52:23;;;;;;;1.38;0.60;;;;;;;30.83;31.78;101910.75;5045195;27;96866;-81
2023/06/27 05:54:50;;;;;;;1.17;0.80;;;;;;;30.83;31.76;101905.22;5044954;27;96721;-81
2023/06/27 05:57:18;;;;;;;1.17;0.70;;;;;;;30.83;31.90;101902.44;5043754;27;98351;-81
2023/06/27 05:59:44;;;;;;;1.23;0.73;;;;;;;30.83;31.95;101899.66;5047676;27;97261;-81
2023/06/27 06:02:11;;;;;;;0.95;0.70;;;;;;;30.83;31.87;101905.22;5033540;27;96814;-81
2023/06/27 06:04:38;;;;;;;1.33;0.73;;;;;;;30.83;31.78;101904.38;5049938;27;96727;-80
2023/06/27 06:07:05;;;;;;;1.38;0.70;;;;;;;30.83;31.75;101913.53;5041414;27;97639;-81
2023/06/27 06:09:31;;;;;;;1.50;0.80;;;;;;;30.82;31.96;101905.44;5034081;27;97313;-81
2023/06/27 06:11:58;;;;;;;1.13;0.70;;;;;;;30.83;31.54;101907.13;5032358;27;96732;-81
2023/06/27 06:14:25;;;;;;;1.00;0.80;;;;;;;30.83;31.90;101909.91;5033288;27;97171;-81
2023/06/27 06:16:52;;;;;;;0.80;0.70;;;;;;;30.82;31.87;101906.28;5034680;27;98045;-80
2023/06/27 06:19:18;;;;;;;0.70;0.60;;;;;;;30.82;31.91;101911.84;5052971;27;96864;-81
2023/06/27 06:21:45;;;;;;;0.93;0.68;;;;;;;30.82;31.84;101903.50;5050180;27;97342;-80
2023/06/27 06:24:14;;;;;;;0.93;0.73;;;;;;;30.83;32.04;101904.38;5050795;27;96916;-80
2023/06/27 06:26:40;;;;;;;1.30;0.85;;;;;;;30.81;31.90;101907.34;5053019;27;98177;-80
2023/06/27 06:29:12;;;;;;;1.15;0.80;;;;;;;30.82;32.02;101910.97;5050598;27;98553;-80
2023/06/27 06:31:42;;;;;;;1.42;0.77;;;;;;;30.83;31.87;101912.69;5040516;27;97138;-81
2023/06/27 06:34:09;;;;;;;1.70;0.77;;;;;;;30.82;31.87;101917.38;5045791;27;97276;-81
2023/06/27 06:36:35;;;;;;;1.05;0.77;;;;;;;30.82;31.81;101914.59;5040783;27;98073;-81
2023/06/27 06:39:02;;;;;;;1.42;0.73;;;;;;;30.82;32.01;101920.16;5030551;27;100226;-81
2023/06/27 06:41:29;;;;;;;1.05;0.82;;;;;;;30.82;31.87;101919.31;5043067;27;96877;-81
2023/06/27 06:43:56;;;;;;;1.98;1.00;;;;;;;30.82;32.02;101922.94;5049231;27;97041;-81
2023/06/27 06:46:23;;;;;;;1.42;0.85;;;;;;;30.82;31.93;101928.47;5033077;27;98317;-80
2023/06/27 06:48:51;;;;;;;1.33;0.80;;;;;;;30.83;31.89;101926.56;5046086;27;97181;-80
2023/06/27 06:51:18;;;;;;;2.05;0.98;;;;;;;30.82;31.93;101931.25;5045091;27;96700;-81
2023/06/27 06:53:45;;;;;;;1.35;0.82;;;;;;;30.83;31.97;101934.88;5047581;27;96814;-81
2023/06/27 06:56:11;;;;;;;3.67;1.00;;;;;;;30.82;31.93;101939.56;5041398;27;99318;-81
2023/06/27 06:58:38;;;;;;;0.98;0.70;;;;;;;30.82;31.91;101936.78;5048737;27;96752;-81
2023/06/27 07:01:05;;;;;;;2.15;1.27;;;;;;;30.82;31.85;101942.34;5044530;27;97066;-81
2023/06/27 07:03:33;;;;;;;2.25;1.05;;;;;;;30.83;32.08;101938.50;5041750;27;98800;-81
2023/06/27 07:06:00;;;;;;;2.63;1.00;;;;;;;30.83;32.03;101934.88;5049198;27;98208;-81
2023/06/27 07:08:26;;;;;;;1.90;1.17;;;;;;;30.83;32.35;101935.72;5031308;27;97932;-80
2023/06/27 07:10:53;;;;;;;2.25;1.05;;;;;;;30.82;31.87;101934.03;5046331;27;96798;-81
2023/06/27 07:13:23;;;;;;;2.10;0.82;;;;;;;30.84;32.11;101937.44;5049071;27;96997;-81
2023/06/27 07:15:54;;;;;;;2.47;1.13;;;;;;;30.82;31.90;101935.94;5027696;27;96835;-80
2023/06/27 07:18:20;;;;;;;1.83;1.20;;;;;;;30.82;32.07;101934.03;5052228;27;96699;-80
2023/06/27 07:20:47;;;;;;;2.88;1.40;;;;;;;30.83;32.08;101938.50;5051076;27;96822;-80
2023/06/27 07:23:15;;;;;;;2.25;1.17;;;;;;;30.83;32.02;101935.72;5051564;27;96772;-80
2023/06/27 07:25:42;;;;;;;3.80;1.10;;;;;;;30.83;31.93;101938.50;5046691;27;98038;-80
2023/06/27 07:28:09;;;;;;;3.10;1.15;;;;;;;30.83;31.87;101935.72;5049248;27;96823;-80
2023/06/27 07:30:36;;;;;;;3.58;1.50;;;;;;;30.85;32.00;101938.28;5045887;27;97288;-80
2023/06/27 07:33:03;;;;;;;2.20;1.35;;;;;;;30.84;32.03;101931.88;5048246;27;96625;-80
2023/06/27 07:35:29;;;;;;;2.58;1.33;;;;;;;30.84;32.14;101934.66;5045185;27;97894;-80
2023/06/27 07:37:56;;;;;;;3.83;1.35;;;;;;;30.84;31.89;101925.47;5047798;27;97527;-80
2023/06/27 07:40:22;;;;;;;3.20;1.05;;;;;;;30.85;31.78;101929.97;5046935;27;97366;-80
2023/06/27 07:42:49;;;;;;;2.28;1.05;;;;;;;30.85;32.16;101933.59;5047500;27;97030;-80
2023/06/27 07:45:15;;;;;;;3.40;1.23;;;;;;;30.85;31.78;101938.28;5041011;27;97117;-80
2023/06/27 07:47:42;;;;;;;3.10;1.48;;;;;;;30.85;32.00;101939.13;5041480;27;97677;-80
2023/06/27 07:50:09;;;;;;;2.78;1.33;;;;;;;30.86;32.11;101935.28;5048601;27;97509;-81
2023/06/27 07:52:35;;;;;;;2.90;1.60;;;;;;;30.86;31.85;101924.19;5048251;27;97111;-80
2023/06/27 07:55:02;;;;;;;1.73;1.10;;;;;;;30.85;32.07;101932.72;5047555;27;96751;-80
2023/06/27 07:57:29;;;;;;;2.92;1.40;;;;;;;30.85;32.11;101939.13;5045575;27;97681;-80
2023/06/27 07:59:55;;;;;;;2.00;1.05;;;;;;;30.85;32.03;101930.81;5030242;27;98293;-80
2023/06/27 08:02:22;;;;;;;2.65;1.20;;;;;;;30.87;31.91;101927.81;5042089;27;96783;-80
2023/06/27 08:04:48;;;;;;;2.60;1.23;;;;;;;30.86;31.80;101926.97;5045253;27;97119;-80
2023/06/27 08:07:15;;;;;;;2.33;1.10;;;;;;;30.86;31.90;101932.53;5040661;27;97508;-80
2023/06/27 08:09:42;;;;;;;3.55;1.33;;;;;;;30.86;31.57;101935.28;5037128;27;97180;-80
2023/06/27 08:12:09;;;;;;;3.65;1.30;;;;;;;30.87;31.54;101925.03;5036224;27;96879;-80
2023/06/27 08:14:36;;;;;;;1.92;1.20;;;;;;;30.87;31.75;101916.72;5045450;27;97269;-80
2023/06/27 08:17:03;;;;;;;2.72;1.70;;;;;;;30.87;31.75;101916.72;5047391;27;96818;-81
2023/06/27 08:19:29;;;;;;;2.42;0.82;;;;;;;30.87;31.52;101919.50;5031098;27;96789;-80
2023/06/27 08:21:56;;;;;;;2.03;0.98;;;;;;;30.88;31.47;101915.66;5049348;27;96782;-80
2023/06/27 08:24:22;;;;;;;2.75;1.38;;;;;;;30.87;31.57;101914.81;5048444;27;99208;-80
2023/06/27 08:26:49;;;;;;;2.15;1.20;;;;;;;30.87;31.67;101920.34;5041577;27;96794;-80
2023/06/27 08:29:16;;;;;;;3.00;1.35;;;;;;;30.87;31.30;101922.28;5033931;27;96693;-80
2023/06/27 08:31:43;;;;;;;3.67;1.30;;;;;;;30.87;31.38;101917.59;5030108;27;97352;-80
2023/06/27 08:34:10;;;;;;;1.58;1.00;;;;;;;30.89;31.24;101917.38;5031538;27;99070;-80
2023/06/27 08:36:36;;;;;;;2.47;1.20;;;;;;;30.87;31.41;101902.84;5034796;27;96853;-80
2023/06/27 08:39:03;;;;;;;3.35;1.40;;;;;;;30.88;31.23;101924.84;5045649;27;96905;-80
2023/06/27 08:41:30;;;;;;;3.75;1.30;;;;;;;30.88;31.12;101922.06;5040112;27;96965;-80
2023/06/27 08:43:57;;;;;;;3.45;1.42;;;;;;;30.89;31.22;101911.81;5048743;27;97844;-80
2023/06/27 08:46:27;;;;;;;3.05;1.17;;;;;;;30.89;31.16;101925.69;5032290;27;97088;-80
2023/06/27 08:48:58;;;;;;;3.15;1.38;;;;;;;30.90;31.04;101910.75;5042018;27;96837;-81
2023/06/27 08:51:27;;;;;;;2.72;1.00;;;;;;;30.88;31.23;101899.88;5017283;27;96897;-80
2023/06/27 08:54:08;;;;;;;2.63;1.20;;;;;;;30.88;31.27;101901.78;5032636;27;97394;-80
2023/06/27 08:56:38;;;;;;;3.15;1.52;;;;;;;30.87;31.01;101909.25;5034171;27;96990;-80
2023/06/27 08:59:07;;;;;;;2.10;1.05;;;;;;;30.87;31.16;101900.94;5031700;27;97431;-80
2023/06/27 09:01:36;;;;;;;2.53;1.13;;;;;;;30.87;30.97;101903.72;5048420;27;96912;-81
2023/06/27 09:04:04;;;;;;;2.78;1.30;;;;;;;30.88;31.06;101899.88;5036870;27;96839;-80
2023/06/27 09:06:30;;;;;;;1.73;0.88;;;;;;;30.86;31.13;101896.47;5043051;27;99047;-80
2023/06/27 09:08:57;;;;;;;1.90;1.15;;;;;;;30.87;31.18;101898.16;5042531;27;96783;-80
2023/06/27 09:11:26;;;;;;;2.03;1.23;;;;;;;30.87;31.24;101903.72;5036900;27;96570;-80
2023/06/27 09:13:53;;;;;;;1.50;1.20;;;;;;;30.87;31.07;101900.09;5019026;27;98393;-80
2023/06/27 09:16:19;;;;;;;2.20;1.17;;;;;;;30.87;31.02;101906.47;5053076;27;96747;-81
2023/06/27 09:18:47;;;;;;;3.38;1.48;;;;;;;30.87;31.04;101912.03;5050175;27;96732;-80
2023/06/27 09:21:14;;;;;;;2.03;1.05;;;;;;;30.86;30.96;101902.00;5047958;27;96963;-80
2023/06/27 09:23:41;;;;;;;2.20;1.20;;;;;;;30.87;30.75;101914.81;5032528;27;97129;-81
2023/06/27 09:26:14;;;;;;;2.35;1.20;;;;;;;30.89;30.90;101906.25;5033241;27;96989;-81
2023/06/27 09:28:49;;;;;;;2.08;0.90;;;;;;;30.89;31.13;101907.13;5064875;27;96866;-80
2023/06/27 09:31:17;;;;;;;1.85;1.10;;;;;;;30.86;30.85;101904.78;5052441;27;97184;-81
2023/06/27 09:33:45;;;;;;;3.05;1.42;;;;;;;30.87;31.02;101911.19;5046919;27;96895;-80
2023/06/27 09:36:29;;;;;;;2.80;1.20;;;;;;;30.89;31.21;101914.59;5048325;27;98717;-80
2023/06/27 09:39:03;;;;;;;2.08;1.05;;;;;;;30.87;31.08;101913.94;5042188;27;96614;-81
2023/06/27 09:41:47;;;;;;;1.92;1.00;;;;;;;30.87;30.83;101906.47;5047514;27;96467;-81
2023/06/27 09:44:17;;;;;;;2.28;1.13;;;;;;;30.86;31.03;101918.66;5034592;27;100050;-81
2023/06/27 09:46:45;;;;;;;2.13;1.00;;;;;;;30.86;30.86;101912.25;5051764;27;97370;-81
2023/06/27 09:49:13;;;;;;;1.33;0.95;;;;;;;30.86;30.99;101926.97;5051168;27;97540;-81
2023/06/27 09:51:39;;;;;;;2.63;1.13;;;;;;;30.86;30.95;101918.66;5050900;27;97226;-80
2023/06/27 09:54:06;;;;;;;1.58;0.90;;;;;;;30.86;30.86;101923.34;5049854;27;98901;-80
2023/06/27 09:56:34;;;;;;;2.28;1.10;;;;;;;30.87;31.05;101922.28;5043591;27;100918;-80
2023/06/27 09:59:11;;;;;;;3.17;1.08;;;;;;;30.87;31.13;101922.28;5033124;27;96933;-80
2023/06/27 10:01:41;;;;;;;2.35;0.90;;;;;;;30.86;31.05;101920.56;5045372;27;96879;-79
2023/06/27 10:04:08;;;;;;;1.80;0.95;;;;;;;30.87;30.97;101919.50;5045588;27;97356;-80
2023/06/27 10:06:35;;;;;;;2.00;1.10;;;;;;;30.85;31.05;101911.41;5049516;27;97080;-80
2023/06/27 10:09:01;;;;;;;1.48;0.90;;;;;;;30.86;30.92;101907.56;5043942;27;96777;-80
2023/06/27 10:11:29;;;;;;;2.05;1.00;;;;;;;30.87;30.91;101925.03;5033837;27;97215;-80
2023/06/27 10:13:56;;;;;;;1.95;1.00;;;;;;;30.86;30.95;101926.13;5043885;27;100645;-79
2023/06/27 10:16:22;;;;;;;2.15;1.00;;;;;;;30.86;31.06;101915.88;5048153;27;100647;-80
2023/06/27 10:18:49;;;;;;;1.75;0.90;;;;;;;30.87;30.67;101925.03;5020801;27;97303;-80
2023/06/27 10:21:17;;;;;;;1.60;0.90;;;;;;;30.86;31.13;101915.88;5044206;27;96733;-80
2023/06/27 10:23:50;;;;;;;2.33;0.90;;;;;;;30.87;30.83;101928.69;5056980;27;97032;-81
2023/06/27 10:26:20;;;;;;;1.60;1.00;;;;;;;30.86;30.84;101935.28;5045362;27;101197;-80
2023/06/27 10:28:50;;;;;;;2.08;1.08;;;;;;;30.86;31.13;101918.66;5043359;27;96850;-79
2023/06/27 10:31:38;;;;;;;1.75;0.90;;;;;;;30.87;30.80;101934.22;5045946;27;97121;-80
2023/06/27 10:34:05;;;;;;;2.88;1.02;;;;;;;30.85;31.01;101927.19;5044580;27;97704;-78
2023/06/27 10:36:51;;;;;;;1.58;0.82;;;;;;;30.86;30.85;101929.75;5045970;27;99205;-79
2023/06/27 10:39:25;;;;;;;1.75;0.90;;;;;;;30.85;31.00;101921.63;5042503;27;96717;-77
2023/06/27 10:42:05;;;;;;;2.00;1.00;;;;;;;30.85;30.96;101922.50;5037618;27;96804;-77
2023/06/27 10:45:00;;;;;;;2.58;0.90;;;;;;;30.85;30.96;101922.50;5043223;27;98212;-79
2023/06/27 10:47:29;;;;;;;1.75;0.98;;;;;;;30.84;30.98;101922.72;5043465;27;98572;-78
2023/06/27 10:50:05;;;;;;;1.42;0.90;;;;;;;30.85;30.74;101916.94;5044998;27;96908;-78
2023/06/27 10:52:32;;;;;;;1.65;0.80;;;;;;;30.84;30.59;101909.69;5044676;27;98570;-78
2023/06/27 10:55:14;;;;;;;2.13;1.25;;;;;;;30.86;30.79;101915.03;5045654;27;98358;-78
2023/06/27 10:57:42;;;;;;;1.77;0.80;;;;;;;30.86;30.68;101915.03;5043206;27;96860;-78
2023/06/27 11:00:13;;;;;;;2.80;1.13;;;;;;;30.86;30.99;101909.47;5049230;27;96649;-78
2023/06/27 11:02:48;;;;;;;1.35;0.90;;;;;;;30.86;30.96;101910.31;5027315;27;96811;-78
2023/06/27 11:05:18;;;;;;;2.80;1.15;;;;;;;30.85;30.74;101911.41;5048409;27;97831;-78
2023/06/27 11:07:58;;;;;;;2.22;0.82;;;;;;;30.87;30.85;101900.09;5042589;27;97593;-79
2023/06/27 11:10:29;;;;;;;1.63;0.90;;;;;;;30.86;30.66;101907.56;5034088;27;97490;-79
2023/06/27 11:13:44;;;;;;;1.48;0.77;;;;;;;30.86;30.61;101901.16;5014639;27;97003;-78
2023/06/27 11:16:14;;;;;;;2.35;0.90;;;;;;;30.83;30.64;101913.53;5005691;28;97203;-78
2023/06/27 11:18:41;;;;;;;1.55;0.90;;;;;;;30.84;30.61;101904.16;4977136;28;96831;-78
2023/06/27 11:21:08;;;;;;;1.77;0.80;;;;;;;30.84;30.76;101906.91;5018479;27;97527;-78
2023/06/27 11:23:38;;;;;;;2.42;0.98;;;;;;;30.86;30.74;101915.03;5031389;27;97458;-78
2023/06/27 11:26:04;;;;;;;1.70;0.77;;;;;;;30.86;30.58;101906.69;5045338;27;97200;-78
2023/06/27 11:28:31;;;;;;;2.50;0.90;;;;;;;30.87;30.88;101905.63;5041034;27;96797;-78
2023/06/27 11:31:00;;;;;;;1.20;0.70;;;;;;;30.86;30.40;101902.00;5045091;27;98233;-78